Akron, New York
Current Conditions -  °F | °C
As of 8:11 AM on Friday 31 Oct 2014 (Local Time) from KBUF Reporting Station
Light Rain Light Rain  
Wind Chill: 38°   Ceiling: 6000
Heat Index: 42°   Visibility: 10mi
Dew Point: 39°   Wind: 7mph
Humidity: 89%   Direction: 120°ESE
Pressure: 29.95"   Gusts: NA
Location:  43.02°N, 78.5°W
Report Text: KBUF 311211Z 12006KT 10SM -RA FEW029 BKN060 BKN150 OVC200 06/04 A2995 RMK AO2 RAB10 PCPN VRY LGT CIG HYR E-S P0000 T00560039
Loading
Personal Weather Stations






























Interactive Weather Map
Tropical Storm Tracking
New forecast layout! Learn more

10-Day Weather Forecast

Advertisements
Track Severe Weather on mobile